sensor_id;sensor_type;location;lat;lon;timestamp;pressure;altitude;pressure_sealevel;temperature;humidity
21449;BME280;10885;52.830;13.788;2023-02-12T06:07:41;103096.84;;;6.04;90.80
21449;BME280;10885;52.830;13.788;2023-02-12T06:13:02;103113.00;;;6.12;89.09
21449;BME280;10885;52.830;13.788;2023-02-12T06:18:24;103115.94;;;6.15;88.03
21449;BME280;10885;52.830;13.788;2023-02-12T06:23:46;103113.91;;;6.12;86.94
21449;BME280;10885;52.830;13.788;2023-02-12T06:29:06;103125.03;;;6.13;87.36
21449;BME280;10885;52.830;13.788;2023-02-12T06:34:27;103123.00;;;6.10;86.80
21449;BME280;10885;52.830;13.788;2023-02-12T06:39:48;103118.09;;;6.12;86.83
21449;BME280;10885;52.830;13.788;2023-02-12T06:45:08;103138.84;;;6.08;86.70
21449;BME280;10885;52.830;13.788;2023-02-12T06:50:30;103151.03;;;6.10;86.75
21449;BME280;10885;52.830;13.788;2023-02-12T06:55:51;103151.59;;;6.08;86.25
21449;BME280;10885;52.830;13.788;2023-02-12T07:01:15;103161.03;;;6.16;86.34
21449;BME280;10885;52.830;13.788;2023-02-12T07:06:38;103165.41;;;6.17;86.29
21449;BME280;10885;52.830;13.788;2023-02-12T07:11:59;103162.81;;;6.24;86.42
21449;BME280;10885;52.830;13.788;2023-02-12T07:17:20;103167.91;;;6.31;86.00
21449;BME280;10885;52.830;13.788;2023-02-12T07:22:41;103174.25;;;6.35;85.87
21449;BME280;10885;52.830;13.788;2023-02-12T07:28:02;103171.28;;;6.46;85.95
21449;BME280;10885;52.830;13.788;2023-02-12T07:33:24;103174.91;;;6.55;85.37
21449;BME280;10885;52.830;13.788;2023-02-12T07:38:45;103175.22;;;6.66;85.29
21449;BME280;10885;52.830;13.788;2023-02-12T07:44:09;103180.31;;;6.73;85.21
21449;BME280;10885;52.830;13.788;2023-02-12T07:49:31;103182.41;;;6.84;85.19
21449;BME280;10885;52.830;13.788;2023-02-12T07:54:52;103199.16;;;6.89;84.70
21449;BME280;10885;52.830;13.788;2023-02-12T08:00:13;103197.13;;;6.94;84.27
21449;BME280;10885;52.830;13.788;2023-02-12T08:05:35;103201.84;;;6.98;84.11
21449;BME280;10885;52.830;13.788;2023-02-12T08:10:56;103201.59;;;7.11;83.75
21449;BME280;10885;52.830;13.788;2023-02-12T08:16:18;103206.63;;;7.18;83.17
21449;BME280;10885;52.830;13.788;2023-02-12T08:21:40;103210.84;;;7.17;83.43
21449;BME280;10885;52.830;13.788;2023-02-12T08:27:00;103215.44;;;7.13;82.94
21449;BME280;10885;52.830;13.788;2023-02-12T08:32:22;103223.47;;;7.09;82.82
21449;BME280;10885;52.830;13.788;2023-02-12T08:37:43;103220.72;;;7.14;82.62
21449;BME280;10885;52.830;13.788;2023-02-12T08:43:04;103233.09;;;7.19;82.99
21449;BME280;10885;52.830;13.788;2023-02-12T08:48:24;103226.81;;;7.31;82.60
21449;BME280;10885;52.830;13.788;2023-02-12T08:53:47;103242.22;;;7.40;82.49
21449;BME280;10885;52.830;13.788;2023-02-12T08:59:09;103255.28;;;7.50;81.81
21449;BME280;10885;52.830;13.788;2023-02-12T09:04:31;103255.34;;;7.66;81.58
21449;BME280;10885;52.830;13.788;2023-02-12T09:09:52;103264.00;;;7.82;80.58
21449;BME280;10885;52.830;13.788;2023-02-12T09:15:13;103259.19;;;7.92;79.85
21449;BME280;10885;52.830;13.788;2023-02-12T09:20:35;103269.56;;;7.94;79.14
21449;BME280;10885;52.830;13.788;2023-02-12T09:25:57;103268.38;;;8.06;78.36
21449;BME280;10885;52.830;13.788;2023-02-12T09:31:22;103267.22;;;8.11;78.54
21449;BME280;10885;52.830;13.788;2023-02-12T09:36:45;103282.97;;;8.23;78.15
21449;BME280;10885;52.830;13.788;2023-02-12T09:53:18;103289.28;;;8.73;76.29
21449;BME280;10885;52.830;13.788;2023-02-12T09:58:45;103281.84;;;8.67;76.29
21449;BME280;10885;52.830;13.788;2023-02-12T10:04:07;103296.03;;;8.56;76.75
21449;BME280;10885;52.830;13.788;2023-02-12T10:15:24;103296.88;;;8.64;77.60
21449;BME280;10885;52.830;13.788;2023-02-12T10:26:20;103281.31;;;9.26;75.00
21449;BME280;10885;52.830;13.788;2023-02-12T10:31:49;103276.09;;;9.33;74.48
21449;BME280;10885;52.830;13.788;2023-02-12T10:37:18;103268.28;;;9.41;73.68
21449;BME280;10885;52.830;13.788;2023-02-12T10:42:43;103276.00;;;9.25;74.26
21449;BME280;10885;52.830;13.788;2023-02-12T10:48:24;103276.38;;;9.12;74.29
21449;BME280;10885;52.830;13.788;2023-02-12T10:53:46;103277.41;;;9.05;74.99
21449;BME280;10885;52.830;13.788;2023-02-12T10:59:21;103288.38;;;8.88;75.56
21449;BME280;10885;52.830;13.788;2023-02-12T11:04:43;103284.31;;;8.59;76.83
21449;BME280;10885;52.830;13.788;2023-02-12T11:10:19;103278.13;;;8.56;77.98
21449;BME280;10885;52.830;13.788;2023-02-12T11:15:47;103275.34;;;8.94;76.40
21449;BME280;10885;52.830;13.788;2023-02-12T11:21:10;103277.31;;;8.96;75.11
21449;BME280;10885;52.830;13.788;2023-02-12T11:26:32;103281.34;;;8.79;75.02
21449;BME280;10885;52.830;13.788;2023-02-12T11:32:05;103279.97;;;8.58;77.53
21449;BME280;10885;52.830;13.788;2023-02-12T11:37:32;103281.03;;;8.44;77.68
21449;BME280;10885;52.830;13.788;2023-02-12T11:43:05;103268.31;;;8.52;77.96
21449;BME280;10885;52.830;13.788;2023-02-12T11:48:37;103269.31;;;8.46;78.46
21449;BME280;10885;52.830;13.788;2023-02-12T11:54:01;103270.38;;;8.25;79.42
21449;BME280;10885;52.830;13.788;2023-02-12T11:59:35;103256.59;;;8.15;80.15
21449;BME280;10885;52.830;13.788;2023-02-12T12:05:05;103262.69;;;8.09;81.09
21449;BME280;10885;52.830;13.788;2023-02-12T12:10:35;103264.06;;;7.98;81.79
21449;BME280;10885;52.830;13.788;2023-02-12T12:16:13;103263.72;;;7.95;82.25
21449;BME280;10885;52.830;13.788;2023-02-12T12:22:02;103255.72;;;7.92;82.57
21449;BME280;10885;52.830;13.788;2023-02-12T12:27:47;103254.00;;;8.00;82.67
21449;BME280;10885;52.830;13.788;2023-02-12T12:39:14;103243.13;;;9.61;75.64
21449;BME280;10885;52.830;13.788;2023-02-12T12:56:27;103232.31;;;9.97;68.99
21449;BME280;10885;52.830;13.788;2023-02-12T13:02:04;103228.88;;;10.14;68.29
21449;BME280;10885;52.830;13.788;2023-02-12T13:07:49;103230.97;;;10.09;67.05
21449;BME280;10885;52.830;13.788;2023-02-12T13:13:20;103222.41;;;10.09;68.20
21449;BME280;10885;52.830;13.788;2023-02-12T13:19:05;103229.91;;;11.19;66.26
21449;BME280;10885;52.830;13.788;2023-02-12T13:30:05;103214.84;;;13.37;57.88
21449;BME280;10885;52.830;13.788;2023-02-12T13:35:27;103214.28;;;13.60;54.06
21449;BME280;10885;52.830;13.788;2023-02-12T13:40:51;103209.47;;;13.25;54.87
21449;BME280;10885;52.830;13.788;2023-02-12T13:52:01;103195.56;;;11.81;58.50
21449;BME280;10885;52.830;13.788;2023-02-12T13:57:23;103205.41;;;11.31;60.27
21449;BME280;10885;52.830;13.788;2023-02-12T14:02:46;103197.78;;;10.97;61.50
21449;BME280;10885;52.830;13.788;2023-02-12T14:08:35;103194.47;;;10.63;62.48
21449;BME280;10885;52.830;13.788;2023-02-12T14:14:01;103192.78;;;10.46;63.34
21449;BME280;10885;52.830;13.788;2023-02-12T14:19:38;103187.75;;;10.21;65.02
21449;BME280;10885;52.830;13.788;2023-02-12T14:52:53;103191.72;;;10.44;67.10
21449;BME280;10885;52.830;13.788;2023-02-12T14:58:20;103196.38;;;10.30;66.10
21449;BME280;10885;52.830;13.788;2023-02-12T15:03:47;103198.28;;;10.07;66.30
21449;BME280;10885;52.830;13.788;2023-02-12T15:09:13;103198.59;;;9.76;67.97
21449;BME280;10885;52.830;13.788;2023-02-12T15:14:39;103202.91;;;9.60;68.84
21449;BME280;10885;52.830;13.788;2023-02-12T15:20:40;103204.19;;;9.48;68.82
21449;BME280;10885;52.830;13.788;2023-02-12T15:26:09;103202.28;;;9.29;69.40
21449;BME280;10885;52.830;13.788;2023-02-12T15:31:32;103204.56;;;9.10;70.53
21449;BME280;10885;52.830;13.788;2023-02-12T15:36:56;103214.75;;;9.02;70.83
21449;BME280;10885;52.830;13.788;2023-02-12T15:53:29;103218.19;;;8.62;74.30
21449;BME280;10885;52.830;13.788;2023-02-12T15:58:53;103213.31;;;8.56;73.85
21449;BME280;10885;52.830;13.788;2023-02-12T16:04:14;103209.19;;;8.49;74.28
21449;BME280;10885;52.830;13.788;2023-02-12T16:09:35;103222.78;;;8.41;74.76
21449;BME280;10885;52.830;13.788;2023-02-12T16:14:58;103231.00;;;8.39;74.60
21449;BME280;10885;52.830;13.788;2023-02-12T16:20:25;103241.16;;;8.30;75.43
21449;BME280;10885;52.830;13.788;2023-02-12T16:25:52;103246.06;;;8.28;76.22
21449;BME280;10885;52.830;13.788;2023-02-12T16:31:16;103242.09;;;8.23;76.82
21449;BME280;10885;52.830;13.788;2023-02-12T16:36:45;103246.91;;;8.20;76.52
21449;BME280;10885;52.830;13.788;2023-02-12T16:42:14;103249.84;;;8.16;76.68
21449;BME280;10885;52.830;13.788;2023-02-12T16:47:35;103251.66;;;8.17;76.97
21449;BME280;10885;52.830;13.788;2023-02-12T16:53:16;103256.09;;;8.11;77.02
21449;BME280;10885;52.830;13.788;2023-02-12T16:58:43;103254.53;;;8.04;77.49
21449;BME280;10885;52.830;13.788;2023-02-12T17:04:07;103255.06;;;8.02;77.76
21449;BME280;10885;52.830;13.788;2023-02-12T17:09:32;103257.53;;;7.93;78.56
21449;BME280;10885;52.830;13.788;2023-02-12T17:14:53;103251.56;;;7.85;78.90
21449;BME280;10885;52.830;13.788;2023-02-12T17:20:15;103258.50;;;7.86;79.55
21449;BME280;10885;52.830;13.788;2023-02-12T17:25:37;103260.66;;;7.90;79.59
21449;BME280;10885;52.830;13.788;2023-02-12T17:30:58;103267.25;;;7.88;79.35
21449;BME280;10885;52.830;13.788;2023-02-12T17:36:22;103269.41;;;7.92;80.09
21449;BME280;10885;52.830;13.788;2023-02-12T17:41:44;103275.41;;;7.93;79.84
21449;BME280;10885;52.830;13.788;2023-02-12T17:47:06;103278.13;;;7.94;80.08
21449;BME280;10885;52.830;13.788;2023-02-12T17:52:27;103281.19;;;7.99;80.28
21449;BME280;10885;52.830;13.788;2023-02-12T17:57:54;103289.66;;;7.91;80.20
21449;BME280;10885;52.830;13.788;2023-02-12T18:03:15;103289.84;;;7.92;80.59
21449;BME280;10885;52.830;13.788;2023-02-12T18:08:36;103292.97;;;7.90;81.16
21449;BME280;10885;52.830;13.788;2023-02-12T18:13:58;103298.44;;;7.86;81.40
21449;BME280;10885;52.830;13.788;2023-02-12T18:19:19;103297.03;;;7.81;82.09
21449;BME280;10885;52.830;13.788;2023-02-12T18:24:40;103295.44;;;7.74;82.96
21449;BME280;10885;52.830;13.788;2023-02-12T18:30:01;103299.81;;;7.75;83.33
21449;BME280;10885;52.830;13.788;2023-02-12T18:35:22;103297.44;;;7.76;83.51
21449;BME280;10885;52.830;13.788;2023-02-12T18:40:43;103306.03;;;7.70;84.12
21449;BME280;10885;52.830;13.788;2023-02-12T18:46:09;103288.22;;;7.63;84.87
21449;BME280;10885;52.830;13.788;2023-02-12T18:51:31;103279.47;;;7.61;85.04
21449;BME280;10885;52.830;13.788;2023-02-12T18:56:57;103286.38;;;7.62;85.15
21449;BME280;10885;52.830;13.788;2023-02-12T19:02:18;103287.34;;;7.55;85.60
21449;BME280;10885;52.830;13.788;2023-02-12T19:07:40;103286.31;;;7.46;86.63
21449;BME280;10885;52.830;13.788;2023-02-12T19:13:00;103286.88;;;7.43;87.15
21449;BME280;10885;52.830;13.788;2023-02-12T19:18:21;103288.72;;;7.37;88.17
21449;BME280;10885;52.830;13.788;2023-02-12T19:23:42;103298.06;;;7.29;88.83
21449;BME280;10885;52.830;13.788;2023-02-12T19:29:03;103299.16;;;7.31;89.88
21449;BME280;10885;52.830;13.788;2023-02-12T19:34:24;103300.63;;;7.29;90.00
21449;BME280;10885;52.830;13.788;2023-02-12T19:39:46;103297.88;;;7.28;90.49
21449;BME280;10885;52.830;13.788;2023-02-12T19:45:08;103296.78;;;7.33;90.64
21449;BME280;10885;52.830;13.788;2023-02-12T19:50:28;103304.75;;;7.36;90.57
21449;BME280;10885;52.830;13.788;2023-02-12T19:55:49;103299.13;;;7.39;90.38
21449;BME280;10885;52.830;13.788;2023-02-12T20:01:16;103300.22;;;7.41;90.53
21449;BME280;10885;52.830;13.788;2023-02-12T20:06:38;103296.19;;;7.43;90.21
21449;BME280;10885;52.830;13.788;2023-02-12T20:11:59;103290.72;;;7.40;90.45
21449;BME280;10885;52.830;13.788;2023-02-12T20:17:21;103296.56;;;7.39;90.50
21449;BME280;10885;52.830;13.788;2023-02-12T20:22:42;103294.91;;;7.39;90.50
21449;BME280;10885;52.830;13.788;2023-02-12T20:28:03;103296.97;;;7.34;90.71
21449;BME280;10885;52.830;13.788;2023-02-12T20:33:24;103287.47;;;7.33;91.04
21449;BME280;10885;52.830;13.788;2023-02-12T20:38:50;103299.03;;;7.23;91.18
21449;BME280;10885;52.830;13.788;2023-02-12T20:44:14;103290.00;;;7.03;91.93
21449;BME280;10885;52.830;13.788;2023-02-12T20:49:35;103284.88;;;7.03;92.72
21449;BME280;10885;52.830;13.788;2023-02-12T20:54:56;103286.69;;;7.04;92.66
21449;BME280;10885;52.830;13.788;2023-02-12T21:00:17;103281.56;;;7.11;92.99
21449;BME280;10885;52.830;13.788;2023-02-12T21:05:38;103274.47;;;7.09;93.24
21449;BME280;10885;52.830;13.788;2023-02-12T21:11:00;103269.78;;;7.05;93.13
21449;BME280;10885;52.830;13.788;2023-02-12T21:16:23;103257.19;;;7.06;93.45
21449;BME280;10885;52.830;13.788;2023-02-12T21:21:44;103255.38;;;7.05;93.31
21449;BME280;10885;52.830;13.788;2023-02-12T21:27:06;103260.28;;;7.04;93.24
21449;BME280;10885;52.830;13.788;2023-02-12T21:32:26;103257.72;;;7.04;93.46
21449;BME280;10885;52.830;13.788;2023-02-12T21:37:48;103257.22;;;6.99;94.12
21449;BME280;10885;52.830;13.788;2023-02-12T21:43:09;103246.13;;;6.99;94.77
21449;BME280;10885;52.830;13.788;2023-02-12T21:48:30;103251.38;;;7.00;94.82
21449;BME280;10885;52.830;13.788;2023-02-12T21:53:53;103250.28;;;6.98;95.15
21449;BME280;10885;52.830;13.788;2023-02-12T21:59:15;103244.66;;;7.01;95.32
21449;BME280;10885;52.830;13.788;2023-02-12T22:04:36;103247.34;;;7.02;94.94
21449;BME280;10885;52.830;13.788;2023-02-12T22:09:56;103253.91;;;7.00;95.53
21449;BME280;10885;52.830;13.788;2023-02-12T22:15:18;103249.19;;;7.03;95.53
21449;BME280;10885;52.830;13.788;2023-02-12T22:20:38;103250.97;;;7.04;95.66
21449;BME280;10885;52.830;13.788;2023-02-12T22:26:21;103252.09;;;7.06;96.12
21449;BME280;10885;52.830;13.788;2023-02-12T22:31:44;103242.41;;;7.11;95.95
21449;BME280;10885;52.830;13.788;2023-02-12T22:37:06;103239.28;;;7.13;95.97
21449;BME280;10885;52.830;13.788;2023-02-12T22:42:27;103247.50;;;7.11;95.89
21449;BME280;10885;52.830;13.788;2023-02-12T22:47:48;103243.09;;;7.17;96.05
